createdAt,value
2018-05-01T00:01:59.450Z,5.60
2018-05-01T00:04:25.998Z,4.50
2018-05-01T00:06:53.234Z,4.33
2018-05-01T00:09:19.696Z,4.50
2018-05-01T00:11:46.182Z,4.30
2018-05-01T00:14:12.735Z,4.50
2018-05-01T00:16:39.266Z,6.37
2018-05-01T00:19:05.844Z,4.93
2018-05-01T00:21:32.272Z,9.27
2018-05-01T00:23:59.504Z,6.73
2018-05-01T00:26:26.738Z,6.73
2018-05-01T00:28:53.314Z,5.20
2018-05-01T00:31:19.780Z,6.30
2018-05-01T00:33:46.255Z,6.27
2018-05-01T00:36:13.546Z,5.53
2018-05-01T00:38:43.379Z,4.70
2018-05-01T00:41:09.853Z,5.27
2018-05-01T00:43:37.100Z,7.23
2018-05-01T00:46:03.687Z,6.47
2018-05-01T00:48:42.767Z,8.67
2018-05-01T00:51:09.204Z,5.23
2018-05-01T00:53:35.753Z,7.63
2018-05-01T00:56:02.968Z,6.13
2018-05-01T00:58:36.616Z,9.40
2018-05-01T01:01:03.828Z,8.53
2018-05-01T01:03:30.434Z,8.33
2018-05-01T01:05:57.838Z,7.40
2018-05-01T01:08:24.410Z,7.50
2018-05-01T01:10:51.623Z,7.07
2018-05-01T01:13:18.078Z,10.60
2018-05-01T01:15:45.270Z,10.03
2018-05-01T01:18:32.878Z,5.93
2018-05-01T01:20:59.423Z,8.20
2018-05-01T01:23:25.945Z,9.03
2018-05-01T01:25:53.436Z,5.53
2018-05-01T01:28:28.130Z,8.10
2018-05-01T01:30:54.599Z,7.60
2018-05-01T01:33:21.194Z,9.03
2018-05-01T01:35:49.225Z,8.83
2018-05-01T01:38:17.205Z,7.63
2018-05-01T01:40:45.238Z,6.97
2018-05-01T01:43:13.363Z,10.37
2018-05-01T01:45:41.510Z,9.73
2018-05-01T01:48:09.698Z,7.57
2018-05-01T01:50:38.702Z,10.80
2018-05-01T01:53:06.784Z,10.53
2018-05-01T01:55:34.924Z,9.70
2018-05-01T01:58:08.238Z,14.30
2018-05-01T02:00:36.282Z,14.03
2018-05-01T02:03:04.426Z,11.93
2018-05-01T02:05:32.546Z,13.20
2018-05-01T02:08:04.801Z,12.37
2018-05-01T02:10:32.746Z,11.37
2018-05-01T02:13:00.760Z,14.97
2018-05-01T02:15:28.866Z,12.90
2018-05-01T02:17:57.730Z,13.47
2018-05-01T02:20:25.835Z,11.97
2018-05-01T02:22:53.882Z,15.40
2018-05-01T02:25:21.924Z,12.63
2018-05-01T02:27:50.069Z,12.07
2018-05-01T02:30:18.111Z,15.83
2018-05-01T02:32:46.908Z,17.63
2018-05-01T02:35:15.634Z,15.50
2018-05-01T02:37:47.328Z,14.23
2018-05-01T02:40:15.475Z,10.47
2018-05-01T02:42:43.437Z,14.40
2018-05-01T02:45:11.528Z,12.00
2018-05-01T02:47:39.781Z,10.90
2018-05-01T02:50:07.812Z,9.87
2018-05-01T02:52:35.868Z,17.07
2018-05-01T02:55:04.024Z,12.43
2018-05-01T02:57:41.707Z,12.70
2018-05-01T03:00:10.739Z,12.73
2018-05-01T03:02:39.756Z,14.17
2018-05-01T03:05:08.810Z,12.87
2018-05-01T03:07:40.574Z,12.20
2018-05-01T03:10:09.252Z,15.73
2018-05-01T03:12:37.358Z,13.53
2018-05-01T03:15:06.188Z,10.87
2018-05-01T03:17:35.346Z,14.33
2018-05-01T03:20:04.185Z,13.50
2018-05-01T03:22:32.632Z,13.97
2018-05-01T03:25:00.620Z,11.93
2018-05-01T03:27:41.779Z,12.57
2018-05-01T03:30:09.960Z,9.60
2018-05-01T03:32:38.073Z,12.00
2018-05-01T03:35:06.014Z,10.93
2018-05-01T03:37:52.503Z,9.93
2018-05-01T03:40:20.695Z,14.80
2018-05-01T03:42:49.178Z,9.07
2018-05-01T03:45:17.249Z,13.67
2018-05-01T03:47:47.403Z,13.83
2018-05-01T03:50:15.329Z,12.60
2018-05-01T03:52:43.403Z,11.17
2018-05-01T03:55:11.559Z,11.37
2018-05-01T03:57:44.566Z,11.33
2018-05-01T04:00:12.717Z,14.33
2018-05-01T04:02:40.780Z,13.97
2018-05-01T04:05:10.051Z,14.17
2018-05-01T04:07:44.566Z,13.70
2018-05-01T04:10:12.629Z,13.40
2018-05-01T04:12:40.585Z,12.17
2018-05-01T04:15:09.449Z,11.30
2018-05-01T04:17:38.577Z,13.90
2018-05-01T04:20:06.737Z,13.13
2018-05-01T04:22:34.761Z,17.97
2018-05-01T04:25:02.795Z,15.10
2018-05-01T04:27:31.109Z,9.60
2018-05-01T04:30:02.411Z,13.47
2018-05-01T04:32:30.622Z,14.20
2018-05-01T04:34:58.603Z,13.10
2018-05-01T04:37:50.241Z,14.80
2018-05-01T04:40:19.083Z,12.70
2018-05-01T04:42:47.202Z,14.70
2018-05-01T04:45:15.947Z,14.37
2018-05-01T04:47:43.968Z,14.07
2018-05-01T04:50:12.074Z,12.50
2018-05-01T04:52:40.080Z,10.80
2018-05-01T04:55:08.151Z,10.67
2018-05-01T04:57:41.781Z,11.73
2018-05-01T05:00:10.555Z,12.27
2018-05-01T05:02:38.750Z,11.90
2018-05-01T05:05:06.822Z,12.20
2018-05-01T05:07:47.137Z,13.07
2018-05-01T05:10:15.242Z,35.37
2018-05-01T05:12:44.083Z,40.80
2018-05-01T05:15:12.186Z,24.30
2018-05-01T05:17:40.568Z,12.43
2018-05-01T05:20:08.462Z,25.67
2018-05-01T05:22:36.587Z,12.83
2018-05-01T05:25:04.637Z,38.77
2018-05-01T05:27:37.797Z,25.03
2018-05-01T05:30:05.845Z,13.37
2018-05-01T05:32:33.945Z,16.73
2018-05-01T05:35:02.062Z,12.97
2018-05-01T05:47:17.350Z,17.90
2018-05-01T05:49:45.455Z,21.30
2018-05-01T05:52:13.522Z,14.90
2018-05-01T05:54:41.586Z,17.00
2018-05-01T05:57:09.786Z,11.53
2018-05-01T05:59:38.571Z,13.03
2018-05-01T06:02:07.459Z,19.67
2018-05-01T06:04:35.541Z,13.17
2018-05-01T06:07:11.083Z,14.77
2018-05-01T06:09:40.831Z,12.20
2018-05-01T06:12:08.940Z,14.67
2018-05-01T06:14:37.043Z,16.13
2018-05-01T06:17:07.260Z,15.33
2018-05-01T06:19:35.294Z,14.70
2018-05-01T06:22:03.430Z,14.77
2018-05-01T06:24:31.495Z,11.27
2018-05-01T06:27:02.423Z,11.90
2018-05-01T06:29:30.451Z,13.67
2018-05-01T06:31:58.472Z,15.97
2018-05-01T06:34:26.606Z,12.37
2018-05-01T06:36:54.846Z,10.57
2018-05-01T06:39:22.882Z,12.97
2018-05-01T06:41:51.022Z,12.37
2018-05-01T06:44:19.154Z,14.07
2018-05-01T06:46:47.974Z,12.07
2018-05-01T06:49:16.052Z,11.97
2018-05-01T06:51:44.198Z,11.13
2018-05-01T06:54:12.339Z,14.93
2018-05-01T06:56:40.458Z,16.50
2018-05-01T06:59:08.534Z,16.10
2018-05-01T07:01:36.643Z,17.67
2018-05-01T07:04:04.706Z,12.30
2018-05-01T07:06:32.830Z,14.57
2018-05-01T07:09:01.671Z,12.53
2018-05-01T07:11:29.829Z,13.70
2018-05-01T07:13:57.929Z,13.07
2018-05-01T07:16:26.031Z,12.90
2018-05-01T07:19:05.274Z,13.30
2018-05-01T07:21:34.104Z,11.27
2018-05-01T07:24:02.235Z,13.40
2018-05-01T07:26:31.120Z,13.30
2018-05-01T07:29:10.014Z,11.60
2018-05-01T07:31:38.026Z,10.80
2018-05-01T07:34:06.099Z,12.73
2018-05-01T07:36:34.312Z,11.30
2018-05-01T07:39:02.435Z,11.27
2018-05-01T07:41:31.196Z,10.57
2018-05-01T07:43:59.270Z,11.73
2018-05-01T07:46:27.463Z,11.77
2018-05-01T07:49:00.029Z,11.30
2018-05-01T07:51:28.829Z,10.37
2018-05-01T07:53:57.695Z,11.03
2018-05-01T07:56:25.801Z,10.20
2018-05-01T07:58:55.665Z,11.33
2018-05-01T08:01:23.705Z,11.73
2018-05-01T08:03:51.752Z,12.73
2018-05-01T08:06:19.851Z,11.07
2018-05-01T08:08:48.981Z,11.40
2018-05-01T08:11:17.010Z,10.33
2018-05-01T08:13:45.059Z,9.83
2018-05-01T08:16:13.896Z,11.87
2018-05-01T08:18:42.154Z,13.20
2018-05-01T08:21:10.963Z,10.20
2018-05-01T08:23:39.040Z,14.30
2018-05-01T08:26:07.100Z,10.03
2018-05-01T08:28:35.233Z,10.27
2018-05-01T08:31:04.127Z,7.73
2018-05-01T08:33:33.005Z,12.07
2018-05-01T08:36:01.868Z,10.07
2018-05-01T08:38:30.200Z,9.83
2018-05-01T08:40:59.014Z,10.30
2018-05-01T08:43:27.048Z,12.53
2018-05-01T08:45:55.960Z,10.23
2018-05-01T08:48:23.997Z,10.17
2018-05-01T08:50:52.051Z,7.60
2018-05-01T08:53:20.106Z,10.47
2018-05-01T08:55:48.226Z,9.73
2018-05-01T08:58:19.303Z,9.47
2018-05-01T09:00:47.418Z,9.17
2018-05-01T09:03:15.487Z,8.73
2018-05-01T09:05:43.539Z,9.83
2018-05-01T09:08:12.786Z,9.73
2018-05-01T09:10:41.641Z,7.47
2018-05-01T09:13:09.843Z,9.33
2018-05-01T09:15:37.739Z,6.23
2018-05-01T09:18:06.931Z,8.83
2018-05-01T09:20:35.029Z,10.30
2018-05-01T09:23:02.964Z,9.53
2018-05-01T09:25:31.046Z,7.07
2018-05-01T09:28:19.068Z,8.40
2018-05-01T09:30:47.847Z,10.43
2018-05-01T09:33:16.709Z,6.00
2018-05-01T09:35:44.874Z,7.67
2018-05-01T09:38:16.823Z,7.93
2018-05-01T09:40:44.920Z,6.63
2018-05-01T09:43:13.103Z,6.67
2018-05-01T09:45:41.195Z,10.10
2018-05-01T09:48:14.490Z,6.47
2018-05-01T09:50:43.375Z,5.50
2018-05-01T09:53:09.867Z,5.77
2018-05-01T09:55:36.309Z,6.13
2018-05-01T09:58:02.952Z,4.33
2018-05-01T10:00:29.399Z,4.57
2018-05-01T10:02:55.888Z,5.40
2018-05-01T10:05:22.352Z,5.50
2018-05-01T10:07:56.579Z,6.73
2018-05-01T10:10:23.033Z,5.03
2018-05-01T10:12:49.481Z,5.70
2018-05-01T10:15:16.700Z,7.33
2018-05-01T10:17:49.103Z,4.90
2018-05-01T10:20:16.308Z,6.83
2018-05-01T10:22:42.740Z,4.40
2018-05-01T10:25:09.256Z,4.30
2018-05-01T10:30:48.797Z,6.20
2018-05-01T10:33:16.028Z,7.10
2018-05-01T10:35:42.532Z,5.93
2018-05-01T10:38:19.896Z,4.33
2018-05-01T10:40:46.422Z,4.47
2018-05-01T10:43:12.929Z,5.83
2018-05-01T10:45:39.452Z,3.83
2018-05-01T10:48:20.474Z,4.63
2018-05-01T10:50:47.007Z,4.50
2018-05-01T10:53:13.477Z,3.87
2018-05-01T10:55:39.929Z,4.70
2018-05-01T10:58:06.595Z,4.30
2018-05-01T11:00:33.814Z,6.13
2018-05-01T11:03:00.262Z,3.47
2018-05-01T11:05:26.767Z,3.23
2018-05-01T11:07:53.343Z,3.57
2018-05-01T11:10:20.511Z,3.50
2018-05-01T11:12:47.803Z,2.03
2018-05-01T11:15:14.255Z,2.80
2018-05-01T11:17:49.312Z,4.63
2018-05-01T11:20:16.548Z,5.60
2018-05-01T11:22:43.000Z,3.87
2018-05-01T11:25:10.189Z,3.50
2018-05-01T11:27:44.670Z,5.47
2018-05-01T11:30:11.137Z,4.20
2018-05-01T11:32:37.617Z,3.37
2018-05-01T11:35:04.059Z,4.43
2018-05-01T11:37:34.255Z,4.63
2018-05-01T11:40:00.722Z,4.10
2018-05-01T11:42:27.845Z,2.53
2018-05-01T11:44:54.354Z,2.37
2018-05-01T11:47:20.815Z,5.03
2018-05-01T11:49:47.252Z,5.13
2018-05-01T11:52:13.696Z,2.73
2018-05-01T11:54:40.228Z,3.40
2018-05-01T11:57:09.459Z,4.43
2018-05-01T11:59:36.673Z,4.80
2018-05-01T12:02:03.197Z,5.03
2018-05-01T12:18:33.831Z,5.07
2018-05-01T12:21:00.161Z,4.40
2018-05-01T12:23:26.647Z,4.97
2018-05-01T12:25:53.109Z,5.30
2018-05-01T12:28:19.690Z,6.23
2018-05-01T12:30:46.888Z,5.80
2018-05-01T12:33:13.328Z,7.80
2018-05-01T12:35:39.814Z,6.83
2018-05-01T12:38:07.020Z,4.33
2018-05-01T12:40:33.522Z,5.60
2018-05-01T12:42:59.956Z,4.20
2018-05-01T12:45:26.384Z,2.47
2018-05-01T12:47:52.852Z,2.93
2018-05-01T12:50:19.315Z,3.00
2018-05-01T12:52:45.738Z,4.53
2018-05-01T12:55:12.249Z,3.37
2018-05-01T12:57:38.699Z,3.60
2018-05-01T13:00:18.659Z,3.37
2018-05-01T13:02:45.141Z,4.23
2018-05-01T13:05:11.643Z,4.80
2018-05-01T13:07:38.091Z,3.13
2018-05-01T13:10:08.911Z,5.60
2018-05-01T13:12:36.170Z,5.73
2018-05-01T13:15:02.637Z,4.23
2018-05-01T13:17:29.099Z,6.30
2018-05-01T13:19:55.710Z,4.07
2018-05-01T13:22:22.269Z,5.03
2018-05-01T13:24:48.789Z,4.87
2018-05-01T13:27:15.284Z,4.87
2018-05-01T13:29:55.125Z,3.37
2018-05-01T13:32:21.564Z,3.90
2018-05-01T13:34:49.478Z,4.03
2018-05-01T13:37:15.931Z,3.73
2018-05-01T13:39:53.760Z,4.17
2018-05-01T13:42:20.201Z,3.13
2018-05-01T13:44:47.389Z,5.57
2018-05-01T13:47:13.810Z,4.20
2018-05-01T13:49:55.673Z,4.47
2018-05-01T13:52:22.934Z,3.77
2018-05-01T13:54:50.270Z,2.37
2018-05-01T13:57:16.769Z,3.20
2018-05-01T13:59:46.755Z,3.07
2018-05-01T14:02:13.947Z,4.40
2018-05-01T14:04:40.408Z,3.83
2018-05-01T14:07:06.841Z,4.03
2018-05-01T14:09:36.997Z,5.13
2018-05-01T14:12:04.196Z,4.00
2018-05-01T14:14:30.644Z,3.20
2018-05-01T14:16:57.075Z,5.37
2018-05-01T14:19:28.039Z,3.10
2018-05-01T14:21:55.260Z,5.00
2018-05-01T14:24:21.714Z,3.97
2018-05-01T14:26:48.186Z,4.43
2018-05-01T14:29:20.113Z,3.70
2018-05-01T14:31:46.555Z,3.80
2018-05-01T14:34:13.776Z,6.73
2018-05-01T14:36:40.191Z,6.60
2018-05-01T14:39:06.866Z,5.97
2018-05-01T14:41:33.371Z,5.80
2018-05-01T14:43:59.838Z,5.87
2018-05-01T14:46:26.284Z,4.63
2018-05-01T14:48:53.625Z,4.13
2018-05-01T14:51:20.085Z,6.80
2018-05-01T14:53:47.278Z,6.73
2018-05-01T14:56:13.709Z,6.47
2018-05-01T14:58:40.201Z,4.03
2018-05-01T15:01:07.417Z,6.63
2018-05-01T15:03:33.851Z,4.57
2018-05-01T15:06:00.302Z,5.07
2018-05-01T15:08:31.641Z,5.63
2018-05-01T15:10:58.065Z,5.27
2018-05-01T15:13:24.531Z,5.03
2018-05-01T15:15:51.737Z,5.40
2018-05-01T15:18:31.509Z,4.67
2018-05-01T15:20:57.931Z,4.43
2018-05-01T15:23:24.445Z,8.27
2018-05-01T15:25:50.883Z,3.67
2018-05-01T15:28:17.429Z,4.87
2018-05-01T15:30:43.950Z,3.73
2018-05-01T15:33:10.513Z,5.03
2018-05-01T15:35:36.964Z,5.57
2018-05-01T15:38:03.444Z,5.27
2018-05-01T15:40:33.306Z,3.67
2018-05-01T15:42:59.769Z,3.97
2018-05-01T15:45:26.966Z,2.77
2018-05-01T15:47:53.421Z,3.27
2018-05-01T15:50:24.773Z,5.20
2018-05-01T15:52:51.239Z,2.73
2018-05-01T15:55:18.496Z,6.10
2018-05-01T15:57:45.694Z,5.37
2018-05-01T16:00:12.975Z,3.87
2018-05-01T16:02:40.991Z,4.10
2018-05-01T16:05:07.416Z,4.13
2018-05-01T16:07:33.881Z,3.50
2018-05-01T16:10:01.372Z,5.30
2018-05-01T16:12:27.797Z,3.30
2018-05-01T16:14:54.240Z,3.20
2018-05-01T16:17:20.700Z,5.77
2018-05-01T16:19:51.841Z,3.07
2018-05-01T16:22:19.024Z,3.83
2018-05-01T16:24:45.455Z,6.97
2018-05-01T16:27:11.982Z,5.13
2018-05-01T16:29:38.557Z,4.13
2018-05-01T16:32:05.004Z,2.90
2018-05-01T16:34:31.426Z,3.80
2018-05-01T16:36:57.864Z,3.67
2018-05-01T16:39:24.468Z,3.60
2018-05-01T16:41:50.971Z,5.27
2018-05-01T16:44:18.145Z,6.13
2018-05-01T16:46:44.591Z,5.20
2018-05-01T16:49:18.450Z,5.93
2018-05-01T16:51:45.685Z,4.87
2018-05-01T16:54:12.123Z,6.67
2018-05-01T16:56:38.577Z,4.90
2018-05-01T16:59:06.832Z,5.90
2018-05-01T17:01:33.298Z,4.70
2018-05-01T17:03:59.799Z,4.80
2018-05-01T17:06:26.236Z,4.27
2018-05-01T17:08:52.756Z,5.20
2018-05-01T17:11:19.189Z,4.13
2018-05-01T17:13:45.641Z,5.17
2018-05-01T17:16:12.083Z,4.93
2018-05-01T17:18:39.303Z,5.90
2018-05-01T17:21:05.767Z,6.43
2018-05-01T17:23:32.197Z,5.97
2018-05-01T17:25:58.656Z,5.23
2018-05-01T17:28:34.490Z,6.37
2018-05-01T17:31:00.988Z,7.33
2018-05-01T17:33:27.538Z,6.23
2018-05-01T17:35:54.728Z,3.87
2018-05-01T17:38:22.061Z,8.77
2018-05-01T17:40:48.503Z,5.37
2018-05-01T17:43:14.951Z,5.13
2018-05-01T17:45:42.150Z,6.57
2018-05-01T17:48:08.607Z,5.87
2018-05-01T17:50:35.050Z,6.90
2018-05-01T17:53:03.001Z,6.53
2018-05-01T17:55:29.446Z,7.40
2018-05-01T17:57:55.890Z,6.23
2018-05-01T18:00:22.351Z,5.63
2018-05-01T18:02:49.354Z,8.83
2018-05-01T18:05:15.802Z,8.43
2018-05-01T18:07:42.986Z,4.70
2018-05-01T18:10:13.276Z,6.43
2018-05-01T18:12:39.757Z,6.67
2018-05-01T18:15:06.963Z,8.47
2018-05-01T18:17:33.430Z,4.93
2018-05-01T18:20:00.035Z,6.73
2018-05-01T18:22:26.498Z,8.17
2018-05-01T18:24:52.969Z,7.40
2018-05-01T18:27:19.399Z,6.23
2018-05-01T18:29:45.939Z,6.53
2018-05-01T18:32:12.415Z,6.97
2018-05-01T18:34:38.898Z,5.83
2018-05-01T18:37:05.345Z,6.00
2018-05-01T18:39:31.916Z,11.77
2018-05-01T18:41:59.138Z,7.40
2018-05-01T18:44:25.591Z,17.70
2018-05-01T18:46:52.024Z,6.80
2018-05-01T18:49:20.512Z,11.80
2018-05-01T18:51:46.953Z,8.27
2018-05-01T18:54:13.416Z,10.03
2018-05-01T18:56:40.590Z,12.17
2018-05-01T18:59:07.029Z,13.37
2018-05-01T19:01:33.467Z,10.33
2018-05-01T19:04:04.710Z,16.80
2018-05-01T19:06:31.181Z,13.13
2018-05-01T19:09:02.053Z,13.17
2018-05-01T19:11:28.511Z,9.17
2018-05-01T19:13:54.999Z,10.30
2018-05-01T19:16:21.441Z,6.83
2018-05-01T19:18:49.840Z,13.27
2018-05-01T19:21:16.362Z,12.77
2018-05-01T19:23:43.639Z,8.80
2018-05-01T19:26:10.083Z,7.53
2018-05-01T19:28:36.818Z,9.53
2018-05-01T19:31:03.358Z,6.90
2018-05-01T19:33:29.852Z,6.50
2018-05-01T19:35:57.083Z,5.07
2018-05-01T19:38:25.606Z,7.50
2018-05-01T19:40:52.092Z,5.60
2018-05-01T19:43:18.695Z,6.73
2018-05-01T19:45:45.272Z,4.97
2018-05-01T19:48:12.614Z,4.97
2018-05-01T19:50:39.154Z,6.80
2018-05-01T19:53:05.634Z,7.53
2018-05-01T19:55:32.937Z,8.50
2018-05-01T19:58:00.244Z,6.10
2018-05-01T20:00:27.535Z,7.53
2018-05-01T20:02:54.055Z,7.70
2018-05-01T20:05:20.611Z,6.53
2018-05-01T20:07:47.144Z,5.17
2018-05-01T20:10:18.239Z,6.30
2018-05-01T20:12:45.469Z,8.07
2018-05-01T20:15:11.990Z,6.60
2018-05-01T20:17:39.429Z,6.90
2018-05-01T20:20:09.129Z,7.03
2018-05-01T20:22:35.635Z,6.90
2018-05-01T20:25:02.127Z,9.63
2018-05-01T20:27:28.684Z,6.60
2018-05-01T20:29:56.241Z,7.90
2018-05-01T20:32:22.780Z,9.40
2018-05-01T20:34:49.316Z,6.13
2018-05-01T20:37:15.885Z,7.53
2018-05-01T20:39:43.217Z,11.00
2018-05-01T20:42:10.546Z,6.87
2018-05-01T20:44:37.007Z,11.17
2018-05-01T20:47:04.249Z,7.47
2018-05-01T20:49:30.847Z,7.97
2018-05-01T20:51:57.390Z,8.93
2018-05-01T20:54:23.851Z,9.27
2018-05-01T20:56:51.234Z,5.90
2018-05-01T20:59:18.593Z,5.60
2018-05-01T21:01:45.307Z,7.93
2018-05-01T21:04:11.752Z,6.03
2018-05-01T21:06:38.247Z,5.17
2018-05-01T21:09:07.973Z,6.13
2018-05-01T21:11:34.447Z,9.43
2018-05-01T21:14:01.716Z,5.87
2018-05-01T21:16:28.295Z,8.33
2018-05-01T21:18:54.979Z,9.90
2018-05-01T21:21:22.228Z,8.27
2018-05-01T21:23:49.470Z,8.00
2018-05-01T21:26:16.671Z,7.40
2018-05-01T21:28:44.231Z,6.53
2018-05-01T21:31:10.729Z,7.20
2018-05-01T21:33:37.937Z,7.73
2018-05-01T21:36:04.460Z,8.77
2018-05-01T21:38:31.135Z,5.90
2018-05-01T21:40:58.395Z,6.30
2018-05-01T21:43:25.609Z,6.70
2018-05-01T21:45:52.122Z,6.83
2018-05-01T21:48:18.742Z,6.20
2018-05-01T21:50:45.293Z,6.03
2018-05-01T21:53:11.754Z,6.63
2018-05-01T21:55:38.296Z,8.27
2018-05-01T21:58:04.769Z,8.10
2018-05-01T22:00:31.323Z,8.27
2018-05-01T22:02:57.833Z,7.33
2018-05-01T22:05:25.083Z,8.53
2018-05-01T22:07:51.638Z,6.87
2018-05-01T22:10:18.240Z,5.93
2018-05-01T22:12:44.703Z,7.53
2018-05-01T22:15:11.978Z,8.83
2018-05-01T22:17:38.463Z,6.37
2018-05-01T22:20:05.004Z,7.00
2018-05-01T22:22:32.386Z,7.47
2018-05-01T22:24:58.829Z,8.83
2018-05-01T22:27:25.319Z,8.33
2018-05-01T22:29:53.885Z,8.57
2018-05-01T22:32:20.352Z,8.57
2018-05-01T22:34:47.670Z,8.07
2018-05-01T22:37:14.164Z,9.17
2018-05-01T22:39:42.850Z,6.67
2018-05-01T22:42:09.367Z,7.77
2018-05-01T22:44:35.817Z,7.80
2018-05-01T22:47:03.027Z,7.40
2018-05-01T22:49:32.716Z,8.67
2018-05-01T22:51:59.207Z,7.23
2018-05-01T22:54:25.684Z,7.03
2018-05-01T22:56:52.241Z,7.43
2018-05-01T22:59:26.367Z,7.47
2018-05-01T23:01:52.961Z,11.77
2018-05-01T23:04:19.447Z,9.53
2018-05-01T23:06:46.854Z,10.40
2018-05-01T23:09:20.535Z,7.90
2018-05-01T23:11:47.125Z,7.73
2018-05-01T23:14:13.692Z,10.03
2018-05-01T23:16:40.261Z,12.03
2018-05-01T23:19:06.872Z,8.83
2018-05-01T23:21:34.131Z,11.30
2018-05-01T23:24:00.662Z,10.03
2018-05-01T23:26:27.154Z,8.20
2018-05-01T23:28:53.871Z,9.97
2018-05-01T23:31:20.380Z,11.13
2018-05-01T23:33:46.875Z,8.83
2018-05-01T23:36:13.384Z,9.33
2018-05-01T23:38:39.884Z,10.30
2018-05-01T23:41:06.376Z,8.57
2018-05-01T23:43:32.884Z,12.07
2018-05-01T23:45:59.330Z,8.80
2018-05-01T23:48:40.458Z,10.20
2018-05-01T23:51:07.732Z,10.20
2018-05-01T23:53:34.232Z,11.07
2018-05-01T23:56:00.733Z,10.20
2018-05-01T23:58:29.306Z,8.53
